Time;durP1;ratioP1;P1;durP2;ratioP2;P2;SDS_P1;SDS_P2;PMS_P1;PMS_P2;Temp;Humidity;BMP_temperature;BMP_pressure;BME280_temperature;BME280_humidity;BME280_pressure;Samples;Min_cycle;Max_cycle;Signal;HPM_P1;HPM_P2
2022/07/31 00:00:22;;;;;;;1.27;1.27;;;28.00;34.90;;;;;;5088738;28;45280;-71
2022/07/31 00:02:49;;;;;;;1.50;1.40;;;28.00;35.00;;;;;;5088640;28;45249;-71
2022/07/31 00:05:18;;;;;;;3.72;1.40;;;27.90;34.90;;;;;;5088661;28;45270;-71
2022/07/31 00:07:45;;;;;;;1.67;1.45;;;27.90;34.90;;;;;;5087166;28;46487;-71
2022/07/31 00:10:11;;;;;;;1.15;1.10;;;27.90;35.00;;;;;;5088357;28;45350;-71
2022/07/31 00:12:38;;;;;;;2.05;1.30;;;27.90;35.00;;;;;;5088630;28;45206;-71
2022/07/31 00:15:06;;;;;;;1.27;1.20;;;27.90;35.10;;;;;;5088631;28;45162;-71
2022/07/31 00:17:33;;;;;;;1.40;1.30;;;27.90;35.00;;;;;;5088157;28;45469;-71
2022/07/31 00:20:00;;;;;;;1.45;1.30;;;27.80;34.90;;;;;;5088232;28;45296;-71
2022/07/31 00:22:28;;;;;;;1.40;1.27;;;27.80;35.10;;;;;;5088765;28;45315;-71
2022/07/31 00:24:55;;;;;;;1.40;1.30;;;27.80;35.10;;;;;;5088498;28;45123;-71
2022/07/31 00:27:22;;;;;;;1.70;1.30;;;27.80;35.20;;;;;;5087961;28;45479;-71
2022/07/31 00:29:49;;;;;;;2.17;1.20;;;27.80;35.10;;;;;;5090096;27;45311;-71
2022/07/31 00:32:16;;;;;;;1.45;1.35;;;27.80;35.00;;;;;;5108679;27;45324;-71
2022/07/31 00:34:42;;;;;;;1.30;1.20;;;27.70;35.20;;;;;;5108730;27;45375;-72
2022/07/31 00:37:09;;;;;;;1.30;1.20;;;27.70;35.20;;;;;;5095274;27;45494;-71
2022/07/31 00:39:38;;;;;;;1.52;1.38;;;27.70;35.10;;;;;;5087028;28;45187;-71
2022/07/31 00:42:05;;;;;;;3.47;1.25;;;27.70;35.20;;;;;;5087653;28;45330;-71
2022/07/31 00:44:32;;;;;;;1.90;1.27;;;27.70;35.20;;;;;;5088177;28;45329;-71
2022/07/31 00:46:59;;;;;;;1.65;1.33;;;27.70;35.20;;;;;;5087736;28;46641;-71
2022/07/31 00:49:25;;;;;;;1.33;1.23;;;27.60;35.80;;;;;;5087963;28;45207;-71
2022/07/31 00:51:52;;;;;;;1.30;1.20;;;27.60;35.20;;;;;;5087856;28;45266;-71
2022/07/31 00:54:19;;;;;;;1.40;1.30;;;27.60;35.30;;;;;;5088064;28;45369;-71
2022/07/31 00:56:47;;;;;;;1.20;1.20;;;27.60;35.10;;;;;;5087494;28;46498;-71
2022/07/31 00:59:14;;;;;;;1.42;1.33;;;27.60;35.30;;;;;;5087569;28;45159;-71
2022/07/31 01:01:41;;;;;;;1.35;1.27;;;27.60;35.10;;;;;;5087688;28;45199;-71
2022/07/31 01:04:08;;;;;;;1.20;1.20;;;27.60;35.20;;;;;;5087967;28;45270;-71
2022/07/31 01:06:34;;;;;;;1.38;1.25;;;27.50;35.20;;;;;;5087506;28;45386;-71
2022/07/31 01:09:01;;;;;;;1.30;1.23;;;27.50;35.20;;;;;;5087619;28;45277;-71
2022/07/31 01:11:36;;;;;;;1.20;1.10;;;27.50;35.20;;;;;;5087592;28;45367;-71
2022/07/31 01:14:06;;;;;;;1.40;1.27;;;27.50;35.40;;;;;;5080100;28;45321;-71
2022/07/31 01:16:39;;;;;;;1.35;1.25;;;27.50;35.30;;;;;;5084442;28;46185;-71
2022/07/31 01:19:10;;;;;;;1.48;1.38;;;27.50;35.40;;;;;;5087060;28;45133;-71
2022/07/31 01:21:42;;;;;;;1.30;1.20;;;27.40;35.40;;;;;;5087358;28;45237;-71
2022/07/31 01:24:24;;;;;;;1.38;1.27;;;27.40;35.80;;;;;;5087762;28;45451;-72
2022/07/31 01:26:53;;;;;;;1.50;1.40;;;27.40;35.40;;;;;;5087202;28;45279;-71
2022/07/31 01:29:24;;;;;;;2.17;1.40;;;27.40;35.50;;;;;;5082278;28;45321;-71
2022/07/31 01:31:54;;;;;;;2.25;1.58;;;27.40;35.60;;;;;;5086202;28;45210;-72
2022/07/31 01:34:24;;;;;;;1.50;1.40;;;27.40;35.60;;;;;;5087402;28;45277;-72
2022/07/31 01:36:57;;;;;;;1.42;1.33;;;27.40;35.60;;;;;;5081713;28;45277;-72
2022/07/31 01:39:23;;;;;;;1.58;1.30;;;27.30;35.50;;;;;;5086753;28;45290;-72
2022/07/31 01:41:50;;;;;;;1.40;1.30;;;27.30;35.60;;;;;;5086665;28;45217;-70
2022/07/31 01:44:18;;;;;;;1.50;1.40;;;27.30;35.60;;;;;;5086536;28;45131;-71
2022/07/31 01:46:46;;;;;;;1.52;1.30;;;27.30;35.70;;;;;;5086633;28;46341;-71
2022/07/31 01:49:13;;;;;;;1.35;1.30;;;27.30;35.70;;;;;;5086735;28;45281;-72
2022/07/31 01:51:40;;;;;;;1.58;1.48;;;27.20;35.60;;;;;;5086878;28;45150;-72
2022/07/31 01:54:06;;;;;;;1.48;1.25;;;27.20;35.80;;;;;;5087097;28;45191;-71
2022/07/31 01:56:33;;;;;;;1.45;1.33;;;27.20;35.60;;;;;;5086496;28;46768;-71
2022/07/31 01:59:00;;;;;;;1.40;1.30;;;27.20;35.70;;;;;;5086571;28;45321;-71
2022/07/31 02:01:27;;;;;;;1.42;1.33;;;27.20;35.80;;;;;;5086717;28;45356;-72
2022/07/31 02:03:56;;;;;;;1.40;1.20;;;27.20;35.80;;;;;;5086922;28;45454;-72
2022/07/31 02:06:23;;;;;;;1.15;1.05;;;27.10;35.70;;;;;;5086424;28;45225;-71
2022/07/31 02:08:50;;;;;;;1.30;1.20;;;27.10;35.80;;;;;;5086505;28;45346;-71
2022/07/31 02:11:18;;;;;;;1.48;1.38;;;27.10;35.80;;;;;;5086530;28;45238;-71
2022/07/31 02:13:45;;;;;;;1.10;1.10;;;27.10;35.70;;;;;;5086861;28;45199;-71
2022/07/31 02:16:12;;;;;;;1.15;1.15;;;27.10;35.90;;;;;;5086320;28;46895;-71
2022/07/31 02:18:39;;;;;;;1.20;1.20;;;27.10;35.90;;;;;;5086372;28;45134;-71
2022/07/31 02:21:07;;;;;;;1.30;1.20;;;27.10;35.80;;;;;;5086559;28;45341;-71
2022/07/31 02:23:34;;;;;;;1.15;1.15;;;27.00;35.90;;;;;;5086801;28;45455;-71
2022/07/31 02:26:01;;;;;;;1.15;1.15;;;27.00;35.90;;;;;;5086225;28;45195;-72
2022/07/31 02:28:28;;;;;;;1.77;1.67;;;27.00;35.90;;;;;;5085910;28;45232;-71
2022/07/31 02:30:55;;;;;;;1.27;1.15;;;27.00;36.00;;;;;;5086406;27;45577;-71
2022/07/31 02:33:23;;;;;;;1.30;1.20;;;27.00;36.00;;;;;;5090143;28;45411;-72
2022/07/31 02:35:50;;;;;;;1.20;1.10;;;26.90;35.90;;;;;;5088204;28;46309;-71
2022/07/31 02:38:19;;;;;;;0.95;0.95;;;26.90;36.00;;;;;;5069159;28;45142;-71
2022/07/31 02:40:46;;;;;;;1.33;1.20;;;26.90;35.90;;;;;;5088248;28;45324;-71
2022/07/31 02:43:13;;;;;;;1.10;1.10;;;26.90;35.90;;;;;;5090384;28;45439;-71
2022/07/31 02:45:41;;;;;;;1.13;1.05;;;26.90;36.00;;;;;;5089597;28;45212;-71
2022/07/31 02:48:08;;;;;;;1.27;1.25;;;26.90;36.30;;;;;;5089764;28;45193;-71
2022/07/31 02:50:35;;;;;;;1.40;1.23;;;26.80;36.00;;;;;;5089858;28;45336;-71
2022/07/31 02:53:02;;;;;;;1.20;1.13;;;26.80;35.90;;;;;;5089909;28;45293;-71
2022/07/31 02:55:30;;;;;;;1.40;1.30;;;26.80;36.00;;;;;;5089518;28;46442;-71
2022/07/31 02:57:57;;;;;;;1.15;1.10;;;26.80;36.10;;;;;;5089660;28;45229;-71
2022/07/31 03:00:25;;;;;;;1.33;1.15;;;26.80;36.10;;;;;;5089748;28;45295;-71
2022/07/31 03:02:53;;;;;;;1.23;1.13;;;26.70;36.00;;;;;;5089768;28;45475;-71
2022/07/31 03:05:19;;;;;;;1.40;1.23;;;26.70;36.00;;;;;;5089560;28;46431;-71
2022/07/31 03:07:46;;;;;;;1.00;1.00;;;26.70;36.10;;;;;;5089509;28;45154;-71
2022/07/31 03:10:13;;;;;;;1.13;1.10;;;26.70;36.20;;;;;;5089477;28;45250;-71
2022/07/31 03:12:43;;;;;;;1.42;1.30;;;26.70;36.20;;;;;;5089921;28;45397;-71
2022/07/31 03:15:11;;;;;;;1.10;1.10;;;26.60;36.10;;;;;;5089191;28;46343;-71
2022/07/31 03:17:38;;;;;;;1.20;1.20;;;26.60;36.30;;;;;;5088383;28;45173;-71
2022/07/31 03:20:06;;;;;;;1.00;1.00;;;26.60;36.20;;;;;;5089171;28;45306;-72
2022/07/31 03:22:33;;;;;;;1.20;1.10;;;26.60;36.20;;;;;;5089385;28;45258;-72
2022/07/31 03:25:00;;;;;;;1.40;1.30;;;26.60;36.20;;;;;;5089072;28;46358;-72
2022/07/31 03:27:27;;;;;;;1.10;1.10;;;26.60;36.30;;;;;;5089111;28;45306;-72
2022/07/31 03:29:55;;;;;;;1.20;1.10;;;26.50;36.10;;;;;;5098377;27;45188;-72
2022/07/31 03:32:22;;;;;;;1.17;1.10;;;26.50;36.20;;;;;;5109961;27;45307;-72
2022/07/31 03:34:48;;;;;;;1.08;1.05;;;26.50;36.20;;;;;;5109376;27;46401;-72
2022/07/31 03:37:15;;;;;;;1.60;1.50;;;26.50;36.30;;;;;;5095601;27;45190;-72
2022/07/31 03:39:42;;;;;;;1.30;1.20;;;26.50;36.20;;;;;;5088879;28;45219;-72
2022/07/31 03:42:09;;;;;;;1.40;1.30;;;26.50;36.30;;;;;;5089166;27;45190;-71
2022/07/31 03:44:36;;;;;;;1.33;1.15;;;26.50;36.30;;;;;;5088734;28;45283;-72
2022/07/31 03:47:04;;;;;;;2.35;1.10;;;26.40;36.30;;;;;;5088854;28;45369;-71
2022/07/31 03:49:31;;;;;;;1.00;1.00;;;26.40;36.30;;;;;;5089157;28;45216;-72
2022/07/31 03:51:58;;;;;;;1.23;1.13;;;26.40;36.40;;;;;;5089243;28;45408;-72
2022/07/31 03:54:25;;;;;;;1.10;1.10;;;26.40;36.40;;;;;;5088518;28;45200;-71
2022/07/31 03:56:52;;;;;;;1.02;1.02;;;26.40;36.30;;;;;;5088623;28;45392;-71
2022/07/31 03:59:19;;;;;;;1.05;1.00;;;26.40;36.40;;;;;;5088861;28;45348;-72
2022/07/31 04:01:46;;;;;;;1.08;0.93;;;26.40;36.30;;;;;;5088515;28;45245;-71
2022/07/31 04:04:14;;;;;;;1.23;1.20;;;26.40;37.00;;;;;;5087845;28;45217;-72
2022/07/31 04:06:41;;;;;;;2.00;1.23;;;26.30;36.30;;;;;;5088705;28;45375;-72
2022/07/31 04:09:08;;;;;;;1.15;1.05;;;26.30;36.40;;;;;;5088571;28;45263;-72
2022/07/31 04:11:34;;;;;;;1.38;1.25;;;26.30;36.40;;;;;;5088792;28;45355;-72
2022/07/31 04:14:01;;;;;;;1.30;1.20;;;26.30;36.40;;;;;;5088256;28;45247;-72
2022/07/31 04:16:28;;;;;;;0.90;0.90;;;26.30;36.40;;;;;;5088410;28;45136;-71
2022/07/31 04:18:55;;;;;;;1.27;1.17;;;26.30;36.40;;;;;;5088094;28;45238;-72
2022/07/31 04:21:23;;;;;;;1.00;1.00;;;26.30;36.40;;;;;;5088560;28;45402;-72
2022/07/31 04:23:50;;;;;;;1.00;1.00;;;26.20;36.40;;;;;;5087851;28;46435;-72
2022/07/31 04:26:16;;;;;;;1.17;1.08;;;26.20;36.40;;;;;;5088112;28;45155;-72
2022/07/31 04:28:43;;;;;;;1.10;1.10;;;26.20;36.50;;;;;;5088349;28;45186;-72
2022/07/31 04:31:10;;;;;;;1.15;1.08;;;26.20;36.40;;;;;;5101807;27;45138;-71
2022/07/31 04:33:37;;;;;;;1.40;1.30;;;26.20;36.50;;;;;;5108462;27;45312;-72
2022/07/31 04:36:04;;;;;;;0.90;0.90;;;26.20;36.50;;;;;;5101442;27;45290;-72
2022/07/31 04:38:32;;;;;;;0.90;0.90;;;26.20;36.40;;;;;;5086759;28;45191;-71
2022/07/31 04:40:59;;;;;;;1.02;1.02;;;26.20;36.50;;;;;;5088183;28;45324;-71
2022/07/31 04:43:26;;;;;;;1.25;1.13;;;26.20;36.50;;;;;;5087715;28;45301;-72
2022/07/31 04:45:53;;;;;;;1.10;1.00;;;26.10;36.40;;;;;;5087960;28;45485;-71
2022/07/31 04:48:20;;;;;;;1.10;1.00;;;26.10;36.40;;;;;;5087348;28;45288;-71
2022/07/31 04:50:46;;;;;;;1.20;1.20;;;26.10;36.40;;;;;;5088036;28;45240;-71
2022/07/31 04:53:13;;;;;;;1.00;1.00;;;26.10;36.50;;;;;;5087289;28;45472;-71
2022/07/31 04:55:41;;;;;;;1.42;1.13;;;26.10;36.50;;;;;;5087378;28;45278;-71
2022/07/31 04:58:09;;;;;;;1.73;1.27;;;26.10;36.50;;;;;;5087772;28;45253;-71
2022/07/31 05:00:35;;;;;;;1.25;1.13;;;26.10;36.60;;;;;;5087348;28;45635;-71
2022/07/31 05:03:02;;;;;;;1.02;1.02;;;26.00;36.70;;;;;;5087562;28;46713;-71
2022/07/31 05:05:29;;;;;;;1.20;1.10;;;26.00;36.60;;;;;;5087500;28;45392;-71
2022/07/31 05:07:56;;;;;;;1.20;1.10;;;26.00;36.70;;;;;;5087623;28;45239;-72
2022/07/31 05:13:08;;;;;;;1.10;1.10;;;26.00;36.70;;;;;;5084536;28;45862;-71
2022/07/31 05:15:35;;;;;;;1.13;1.00;;;26.00;36.70;;;;;;5087329;28;45388;-71
2022/07/31 05:18:02;;;;;;;1.00;1.00;;;26.00;36.70;;;;;;5087287;28;45186;-72
2022/07/31 05:20:28;;;;;;;1.35;1.08;;;26.00;36.70;;;;;;5085086;28;45183;-71
2022/07/31 05:22:55;;;;;;;1.00;0.95;;;25.90;36.80;;;;;;5086996;28;46427;-71
2022/07/31 05:25:22;;;;;;;1.58;1.00;;;26.00;36.80;;;;;;5087285;28;45600;-71
2022/07/31 05:27:49;;;;;;;1.35;1.17;;;26.00;36.80;;;;;;5087395;28;45396;-71
2022/07/31 05:30:17;;;;;;;1.20;1.10;;;25.90;36.70;;;;;;5087256;28;45368;-71
2022/07/31 05:32:44;;;;;;;1.00;1.00;;;25.90;36.80;;;;;;5105566;27;47324;-71
2022/07/31 05:35:11;;;;;;;1.52;1.38;;;26.00;36.80;;;;;;5107620;27;45154;-71
2022/07/31 05:37:38;;;;;;;1.48;1.38;;;26.00;36.90;;;;;;5090017;27;45403;-71
2022/07/31 05:40:06;;;;;;;1.15;1.15;;;26.00;36.70;;;;;;5086209;28;45400;-72
2022/07/31 05:42:32;;;;;;;1.10;1.10;;;26.00;36.90;;;;;;5086864;28;46427;-72
2022/07/31 05:44:59;;;;;;;1.15;1.10;;;25.90;36.80;;;;;;5086902;28;45151;-72
2022/07/31 05:47:27;;;;;;;1.00;1.00;;;25.90;36.70;;;;;;5087199;28;45148;-71
2022/07/31 05:49:54;;;;;;;1.52;1.10;;;26.00;36.80;;;;;;5087230;28;45315;-72
2022/07/31 05:52:21;;;;;;;1.50;1.10;;;26.00;36.80;;;;;;5086812;28;46367;-71
2022/07/31 05:54:48;;;;;;;1.08;1.05;;;25.90;36.80;;;;;;5086777;28;45244;-71
2022/07/31 05:57:14;;;;;;;1.00;1.00;;;25.90;36.70;;;;;;5087058;28;45204;-72
2022/07/31 05:59:41;;;;;;;1.77;0.93;;;25.90;36.80;;;;;;5087039;28;45115;-72
2022/07/31 06:02:08;;;;;;;2.53;1.10;;;25.90;36.80;;;;;;5086786;28;45319;-71
2022/07/31 06:04:36;;;;;;;1.23;1.10;;;25.90;36.80;;;;;;5086846;28;45370;-71
2022/07/31 06:07:03;;;;;;;1.20;1.20;;;25.90;36.70;;;;;;5085701;28;45198;-72
2022/07/31 06:09:30;;;;;;;1.00;1.00;;;25.90;36.80;;;;;;5087131;28;45250;-71
2022/07/31 06:11:57;;;;;;;0.93;0.85;;;25.90;36.70;;;;;;5086523;28;45351;-71
2022/07/31 06:14:24;;;;;;;1.00;1.00;;;25.90;36.80;;;;;;5086646;28;45305;-71
2022/07/31 06:16:51;;;;;;;1.13;1.08;;;25.90;36.70;;;;;;5086706;28;45248;-72
2022/07/31 06:19:19;;;;;;;1.42;1.10;;;25.90;36.80;;;;;;5086679;28;45193;-71
2022/07/31 06:21:47;;;;;;;1.15;1.10;;;25.90;36.70;;;;;;5086442;28;46820;-72
2022/07/31 06:24:14;;;;;;;0.93;0.93;;;25.90;36.80;;;;;;5085880;28;45555;-71
2022/07/31 06:26:40;;;;;;;1.27;1.17;;;25.90;36.70;;;;;;5086731;28;45342;-72
2022/07/31 06:29:07;;;;;;;1.00;1.00;;;26.00;36.80;;;;;;5086934;28;45414;-71
2022/07/31 06:31:34;;;;;;;1.00;1.00;;;26.00;36.70;;;;;;5086447;28;46375;-72
2022/07/31 06:34:01;;;;;;;0.82;0.82;;;26.00;36.80;;;;;;5086259;28;45159;-71
2022/07/31 06:36:28;;;;;;;0.90;0.90;;;26.00;36.80;;;;;;5091135;27;45502;-71
2022/07/31 06:38:56;;;;;;;1.02;1.02;;;26.00;36.90;;;;;;5086078;28;45398;-71
2022/07/31 06:44:07;;;;;;;1.40;1.10;;;26.00;36.90;;;;;;5083615;28;45381;-71
2022/07/31 06:46:34;;;;;;;0.95;0.95;;;26.00;36.90;;;;;;5086189;28;45261;-72
2022/07/31 06:49:01;;;;;;;0.88;0.88;;;26.00;36.90;;;;;;5086447;28;45274;-72
2022/07/31 06:51:27;;;;;;;1.25;1.02;;;26.00;36.80;;;;;;5086049;28;45416;-72
2022/07/31 06:53:55;;;;;;;1.00;1.00;;;26.00;36.80;;;;;;5086131;28;45371;-72
2022/07/31 06:56:22;;;;;;;1.20;1.10;;;26.00;37.50;;;;;;5086248;28;45340;-71
2022/07/31 06:58:49;;;;;;;0.90;0.90;;;26.00;36.90;;;;;;5086009;28;45449;-71
2022/07/31 07:01:16;;;;;;;1.10;1.10;;;26.00;36.80;;;;;;5085745;28;46365;-71
2022/07/31 07:03:43;;;;;;;1.10;1.00;;;26.00;36.80;;;;;;5085585;28;45400;-71
2022/07/31 07:06:10;;;;;;;1.00;1.00;;;26.10;36.90;;;;;;5085986;28;45383;-72
2022/07/31 07:08:36;;;;;;;1.13;1.10;;;26.10;36.90;;;;;;5086102;28;45337;-71
2022/07/31 07:11:05;;;;;;;1.10;1.10;;;26.10;36.80;;;;;;5085446;28;46503;-71
2022/07/31 07:13:31;;;;;;;0.90;0.90;;;26.10;36.90;;;;;;5085309;28;45174;-70
2022/07/31 07:15:58;;;;;;;0.82;0.82;;;26.10;36.90;;;;;;5085527;28;45284;-71
2022/07/31 07:18:25;;;;;;;1.08;1.08;;;26.10;36.80;;;;;;5088459;27;45303;-71
2022/07/31 07:20:52;;;;;;;1.00;1.00;;;26.20;36.90;;;;;;5089058;28;45571;-72
2022/07/31 07:23:19;;;;;;;0.90;0.90;;;26.20;36.90;;;;;;5089070;28;45263;-71
2022/07/31 07:25:46;;;;;;;1.00;1.00;;;26.20;36.80;;;;;;5089314;28;45207;-71
2022/07/31 07:28:14;;;;;;;1.13;1.08;;;26.20;36.80;;;;;;5089142;28;45131;-71
2022/07/31 07:30:40;;;;;;;0.90;0.90;;;26.20;36.80;;;;;;5104794;27;46303;-71
2022/07/31 07:33:07;;;;;;;0.85;0.85;;;26.30;36.90;;;;;;5109587;27;45283;-71
2022/07/31 07:35:35;;;;;;;0.85;0.82;;;26.30;36.90;;;;;;5109506;27;45197;-71
2022/07/31 07:38:02;;;;;;;1.65;1.25;;;26.30;37.00;;;;;;5089245;27;45211;-71
2022/07/31 07:40:29;;;;;;;0.93;0.93;;;26.30;36.90;;;;;;5088633;28;46694;-71
2022/07/31 07:42:56;;;;;;;0.85;0.85;;;26.40;36.90;;;;;;5088794;28;45319;-72
2022/07/31 07:45:24;;;;;;;0.93;0.93;;;26.40;36.90;;;;;;5088773;28;45310;-71
2022/07/31 07:47:51;;;;;;;1.10;1.00;;;26.40;36.90;;;;;;5089113;28;45309;-71
2022/07/31 07:50:18;;;;;;;0.95;0.95;;;26.40;36.90;;;;;;5088467;28;46368;-71
2022/07/31 07:52:44;;;;;;;0.80;0.80;;;26.40;36.90;;;;;;5088654;28;45321;-71
2022/07/31 07:55:11;;;;;;;1.13;1.10;;;26.40;36.80;;;;;;5088750;28;45251;-71
2022/07/31 07:57:38;;;;;;;1.20;1.10;;;26.50;36.80;;;;;;5089068;28;45463;-70
2022/07/31 08:00:06;;;;;;;0.88;0.88;;;26.50;36.80;;;;;;5087753;28;45478;-71
2022/07/31 08:02:34;;;;;;;1.02;1.02;;;26.50;36.70;;;;;;5088593;28;45231;-71
2022/07/31 08:05:01;;;;;;;1.13;0.90;;;26.50;36.70;;;;;;5088549;28;45299;-71
2022/07/31 08:07:28;;;;;;;0.90;0.88;;;26.60;36.70;;;;;;5088700;28;45388;-71
2022/07/31 08:09:55;;;;;;;0.80;0.80;;;26.60;36.70;;;;;;5088120;28;45266;-71
2022/07/31 08:12:22;;;;;;;0.90;0.90;;;26.60;36.60;;;;;;5088158;28;45258;-71
2022/07/31 08:14:49;;;;;;;1.17;1.08;;;26.70;36.70;;;;;;5088456;28;45355;-71
2022/07/31 08:17:16;;;;;;;1.17;1.08;;;26.70;36.60;;;;;;5088481;28;45422;-71
2022/07/31 08:19:44;;;;;;;0.95;0.90;;;26.70;36.50;;;;;;5087996;28;46686;-71
2022/07/31 08:22:11;;;;;;;1.13;1.02;;;26.70;37.00;;;;;;5088074;28;45213;-71
2022/07/31 08:24:38;;;;;;;1.67;0.80;;;26.80;36.40;;;;;;5088162;28;45197;-72
2022/07/31 08:29:49;;;;;;;0.80;0.80;;;26.90;36.60;;;;;;5084192;28;45749;-71
2022/07/31 08:32:16;;;;;;;0.90;0.90;;;26.90;36.50;;;;;;5087950;28;45382;-71
2022/07/31 08:34:44;;;;;;;1.52;1.23;;;26.90;36.50;;;;;;5088257;28;45411;-71
2022/07/31 08:37:12;;;;;;;0.82;0.82;;;26.90;36.40;;;;;;5087860;28;45199;-71
2022/07/31 08:39:39;;;;;;;0.90;0.90;;;27.00;36.30;;;;;;5087573;28;45449;-71
2022/07/31 08:42:06;;;;;;;1.10;1.00;;;27.00;36.90;;;;;;5087775;28;45396;-71
2022/07/31 08:44:33;;;;;;;0.95;0.95;;;27.00;36.30;;;;;;5087944;28;45269;-71
2022/07/31 08:46:59;;;;;;;0.85;0.85;;;27.10;36.40;;;;;;5087742;28;45504;-71
2022/07/31 08:49:26;;;;;;;0.95;0.95;;;27.10;36.60;;;;;;5087193;28;47355;-70
2022/07/31 08:51:55;;;;;;;0.90;0.90;;;27.10;36.50;;;;;;5087114;28;45167;-71
2022/07/31 08:54:21;;;;;;;0.90;0.90;;;27.20;36.50;;;;;;5087799;28;45261;-71
2022/07/31 08:56:51;;;;;;;1.00;0.90;;;27.20;36.50;;;;;;5088035;28;45261;-71
2022/07/31 08:59:18;;;;;;;1.15;1.10;;;27.20;36.50;;;;;;5087399;28;45718;-71
2022/07/31 09:01:45;;;;;;;1.27;0.95;;;27.20;36.50;;;;;;5087479;28;45317;-71
2022/07/31 09:04:12;;;;;;;0.80;0.80;;;27.30;36.50;;;;;;5087638;28;45436;-71
2022/07/31 09:06:39;;;;;;;0.95;0.90;;;27.30;36.50;;;;;;5087735;28;45417;-72
2022/07/31 09:09:07;;;;;;;0.90;0.90;;;27.30;36.50;;;;;;5087338;28;46706;-71
2022/07/31 09:11:34;;;;;;;1.40;1.13;;;27.40;36.50;;;;;;5087244;28;45155;-71
2022/07/31 09:14:01;;;;;;;1.33;1.00;;;27.40;36.80;;;;;;5087444;28;45302;-71
2022/07/31 09:16:28;;;;;;;1.30;1.20;;;27.50;37.10;;;;;;5087674;28;45424;-71
2022/07/31 09:18:56;;;;;;;1.38;1.00;;;27.50;37.10;;;;;;5085228;28;45424;-71
2022/07/31 09:21:23;;;;;;;3.63;1.10;;;27.50;37.20;;;;;;5087099;28;45346;-71
2022/07/31 09:23:50;;;;;;;2.13;1.30;;;27.60;37.20;;;;;;5087612;28;45225;-71
2022/07/31 09:26:18;;;;;;;2.25;1.40;;;27.60;37.00;;;;;;5087751;28;45416;-72
2022/07/31 09:28:46;;;;;;;3.05;1.30;;;27.70;37.20;;;;;;5087115;28;45290;-71
2022/07/31 09:31:13;;;;;;;1.42;1.30;;;27.70;37.10;;;;;;5067113;28;45266;-71
2022/07/31 09:33:42;;;;;;;4.40;1.75;;;27.80;36.90;;;;;;5067219;28;45276;-71
2022/07/31 09:36:09;;;;;;;3.15;1.30;;;27.90;36.60;;;;;;5075595;27;45234;-71
2022/07/31 09:38:37;;;;;;;1.50;1.40;;;27.90;36.40;;;;;;5086686;27;46676;-71
2022/07/31 09:41:11;;;;;;;1.55;1.40;;;27.90;36.20;;;;;;5086656;28;45131;-71
2022/07/31 09:43:39;;;;;;;3.15;1.65;;;28.00;35.90;;;;;;5087468;28;45123;-71
2022/07/31 09:46:06;;;;;;;1.63;1.52;;;28.00;35.90;;;;;;5087532;28;45315;-71
2022/07/31 09:48:33;;;;;;;1.30;1.20;;;28.10;36.00;;;;;;5086550;28;46731;-72
2022/07/31 09:51:02;;;;;;;3.20;1.63;;;28.10;35.50;;;;;;5086818;28;45189;-71
2022/07/31 09:53:39;;;;;;;1.88;1.30;;;28.20;35.40;;;;;;5086461;28;45227;-71
2022/07/31 09:56:07;;;;;;;2.00;1.40;;;28.30;35.70;;;;;;5087239;28;45333;-71
2022/07/31 09:58:33;;;;;;;2.17;1.42;;;28.30;35.50;;;;;;5086825;28;45477;-71
2022/07/31 10:01:01;;;;;;;1.48;1.38;;;28.30;35.30;;;;;;5086966;28;45438;-71
2022/07/31 10:03:28;;;;;;;2.20;1.20;;;28.40;35.30;;;;;;5085778;28;45189;-71
2022/07/31 10:05:55;;;;;;;1.63;1.35;;;28.40;35.50;;;;;;5087402;28;45164;-71
2022/07/31 10:08:22;;;;;;;4.15;1.70;;;28.40;35.50;;;;;;5086843;28;45349;-71
2022/07/31 10:10:49;;;;;;;1.60;1.50;;;28.50;35.30;;;;;;5086678;28;45256;-71
2022/07/31 10:13:16;;;;;;;2.70;1.40;;;28.50;35.30;;;;;;5086649;28;45153;-71
2022/07/31 10:15:44;;;;;;;2.00;1.15;;;28.50;35.40;;;;;;5087025;28;45392;-71
2022/07/31 10:18:13;;;;;;;1.67;1.30;;;28.50;35.00;;;;;;5086654;28;46402;-71
2022/07/31 10:20:41;;;;;;;1.80;1.35;;;28.60;35.10;;;;;;5086694;28;45258;-70
2022/07/31 10:23:10;;;;;;;4.00;1.40;;;28.60;35.00;;;;;;5086499;28;45199;-71
2022/07/31 10:25:39;;;;;;;2.15;1.30;;;28.60;35.20;;;;;;5087049;28;45344;-71
2022/07/31 10:28:06;;;;;;;2.88;1.30;;;28.70;35.40;;;;;;5086524;28;46382;-71
2022/07/31 10:30:33;;;;;;;3.30;1.65;;;28.70;35.50;;;;;;5101223;27;45250;-70
2022/07/31 10:33:04;;;;;;;2.75;1.70;;;28.70;35.30;;;;;;5098096;27;45215;-71
2022/07/31 10:35:33;;;;;;;1.30;1.20;;;28.80;35.30;;;;;;5106982;27;45586;-71
2022/07/31 10:38:04;;;;;;;3.22;1.67;;;28.80;35.40;;;;;;5091586;27;46325;-71
2022/07/31 10:40:33;;;;;;;2.08;1.27;;;28.80;35.20;;;;;;5086413;28;45573;-71
2022/07/31 10:43:12;;;;;;;2.88;1.25;;;28.90;35.00;;;;;;5086389;28;45205;-71
2022/07/31 10:45:46;;;;;;;3.85;1.48;;;28.90;34.80;;;;;;5086375;28;45332;-71
2022/07/31 10:48:12;;;;;;;1.20;1.20;;;28.90;34.90;;;;;;5086431;28;47577;-71
2022/07/31 10:50:41;;;;;;;1.70;1.30;;;28.90;34.80;;;;;;5086532;28;45270;-71
2022/07/31 10:53:08;;;;;;;3.63;1.40;;;29.00;34.80;;;;;;5087855;28;45200;-71
2022/07/31 10:55:35;;;;;;;1.33;1.23;;;29.00;34.60;;;;;;5089870;28;45213;-71
2022/07/31 10:58:09;;;;;;;2.20;1.38;;;29.00;34.40;;;;;;5089694;28;45312;-71
2022/07/31 11:00:36;;;;;;;1.20;1.20;;;29.00;34.40;;;;;;5089502;28;45174;-71
2022/07/31 11:03:13;;;;;;;2.08;1.25;;;29.00;34.40;;;;;;5089934;28;45304;-71
2022/07/31 11:05:51;;;;;;;1.70;1.58;;;29.00;34.30;;;;;;5089669;28;45285;-71
2022/07/31 11:08:18;;;;;;;4.78;1.70;;;29.10;34.40;;;;;;5089487;28;45255;-71
2022/07/31 11:10:49;;;;;;;1.38;1.27;;;29.20;34.50;;;;;;5089447;28;45233;-71
2022/07/31 11:13:16;;;;;;;1.33;1.23;;;29.20;34.40;;;;;;5089605;28;45316;-71
2022/07/31 11:15:43;;;;;;;3.00;1.55;;;29.30;34.60;;;;;;5089733;28;45181;-71
2022/07/31 11:18:13;;;;;;;4.20;1.30;;;29.40;35.00;;;;;;5089551;28;46681;-71
2022/07/31 11:20:45;;;;;;;1.20;1.10;;;29.40;34.40;;;;;;5086617;28;45427;-72
2022/07/31 11:23:14;;;;;;;1.40;1.30;;;29.50;34.50;;;;;;5084545;27;45331;-72
2022/07/31 11:25:41;;;;;;;3.60;1.40;;;29.60;34.40;;;;;;5089183;28;45559;-71
2022/07/31 11:28:11;;;;;;;2.20;1.17;;;29.70;34.40;;;;;;5089198;28;46432;-72
2022/07/31 11:30:48;;;;;;;2.50;1.30;;;29.70;34.30;;;;;;5088177;28;45500;-71
2022/07/31 11:33:15;;;;;;;4.20;1.55;;;29.90;34.30;;;;;;5089392;28;45371;-71
2022/07/31 11:35:43;;;;;;;3.25;1.45;;;29.90;34.20;;;;;;5088817;28;45262;-71
2022/07/31 11:38:10;;;;;;;1.45;1.30;;;30.00;34.10;;;;;;5084242;28;45722;-71
2022/07/31 11:40:37;;;;;;;1.50;1.40;;;30.10;33.80;;;;;;5088391;28;45288;-72
2022/07/31 11:43:07;;;;;;;1.40;1.30;;;30.10;33.40;;;;;;5088492;28;45251;-71
2022/07/31 11:45:44;;;;;;;1.65;1.33;;;30.00;33.50;;;;;;5068292;28;45287;-71
2022/07/31 11:48:16;;;;;;;2.38;1.80;;;30.10;33.80;;;;;;5069436;28;46423;-71
2022/07/31 11:50:44;;;;;;;1.60;1.50;;;30.10;33.00;;;;;;5087912;28;45308;-71
2022/07/31 11:53:11;;;;;;;1.50;1.35;;;30.20;33.80;;;;;;5084886;28;45443;-71
2022/07/31 11:55:48;;;;;;;2.17;1.40;;;30.30;33.50;;;;;;5088304;28;45454;-71
2022/07/31 11:58:15;;;;;;;2.05;1.60;;;30.30;33.30;;;;;;5081781;28;46602;-71
2022/07/31 12:00:47;;;;;;;1.60;1.50;;;30.50;33.50;;;;;;5101911;27;45268;-72
2022/07/31 12:03:14;;;;;;;1.35;1.30;;;30.50;32.90;;;;;;5094080;27;45469;-72
2022/07/31 12:05:45;;;;;;;3.05;1.25;;;30.60;33.00;;;;;;5088343;28;45289;-71
2022/07/31 12:08:12;;;;;;;3.30;1.63;;;30.60;32.30;;;;;;5088627;28;45316;-72
2022/07/31 12:10:39;;;;;;;1.75;1.30;;;30.70;33.00;;;;;;5088178;28;45296;-72
2022/07/31 12:13:10;;;;;;;2.42;1.40;;;30.80;32.70;;;;;;5088501;28;45347;-72
2022/07/31 12:15:37;;;;;;;2.65;1.35;;;30.90;32.70;;;;;;5088534;28;45285;-72
2022/07/31 12:18:04;;;;;;;1.83;1.33;;;31.00;32.90;;;;;;5088310;28;45257;-71
2022/07/31 12:20:31;;;;;;;1.40;1.30;;;31.10;32.70;;;;;;5088302;28;45291;-72
2022/07/31 12:22:59;;;;;;;4.00;1.42;;;31.10;32.30;;;;;;5088108;28;45218;-71
2022/07/31 12:25:26;;;;;;;1.48;1.42;;;31.10;31.80;;;;;;5085341;28;45246;-72
2022/07/31 12:27:53;;;;;;;3.35;1.63;;;31.10;32.40;;;;;;5087909;28;45698;-72
2022/07/31 12:30:23;;;;;;;1.38;1.27;;;31.10;32.40;;;;;;5087185;27;45522;-73
2022/07/31 12:32:50;;;;;;;1.55;1.40;;;31.10;31.90;;;;;;5088250;28;45217;-72
2022/07/31 12:35:16;;;;;;;2.38;1.42;;;31.10;31.80;;;;;;5089074;27;45130;-72
2022/07/31 12:37:44;;;;;;;2.88;1.52;;;31.20;32.50;;;;;;5087568;28;45399;-72
2022/07/31 12:40:23;;;;;;;1.48;1.20;;;31.40;33.00;;;;;;5087053;28;45460;-73
2022/07/31 12:42:50;;;;;;;1.67;1.35;;;31.50;32.30;;;;;;5088067;28;45237;-73
2022/07/31 12:45:27;;;;;;;2.05;1.50;;;31.60;32.50;;;;;;5087660;28;45530;-71
2022/07/31 12:47:54;;;;;;;2.90;1.20;;;31.60;31.80;;;;;;5087349;28;45262;-71
2022/07/31 12:50:21;;;;;;;2.20;1.40;;;31.50;31.40;;;;;;5087631;28;45265;-71
2022/07/31 12:52:48;;;;;;;1.95;1.20;;;31.60;31.70;;;;;;5087421;28;45376;-71
2022/07/31 12:55:15;;;;;;;3.53;3.22;;;31.70;31.60;;;;;;5086666;28;45259;-72
2022/07/31 12:57:43;;;;;;;5.68;2.50;;;31.80;31.80;;;;;;5086577;28;46623;-72